createdAt,value
2017-12-29T00:00:22.483Z,3.50
2017-12-29T00:02:51.437Z,3.50
2017-12-29T00:05:20.851Z,3.50
2017-12-29T00:07:50.631Z,3.50
2017-12-29T00:10:20.386Z,3.60
2017-12-29T00:12:50.113Z,3.50
2017-12-29T00:15:19.505Z,3.60
2017-12-29T00:17:49.732Z,3.60
2017-12-29T00:20:18.712Z,3.90
2017-12-29T00:22:47.662Z,3.50
2017-12-29T00:25:18.753Z,3.40
2017-12-29T00:27:47.736Z,3.40
2017-12-29T00:30:17.114Z,3.40
2017-12-29T00:32:46.097Z,3.30
2017-12-29T00:35:15.858Z,3.40
2017-12-29T00:37:44.859Z,3.40
2017-12-29T00:40:14.643Z,3.20
2017-12-29T00:42:43.711Z,3.10
2017-12-29T00:45:12.707Z,3.10
2017-12-29T00:47:41.704Z,3.20
2017-12-29T00:50:10.698Z,3.10
2017-12-29T00:52:40.493Z,3.10
2017-12-29T00:55:10.257Z,3.10
2017-12-29T00:57:39.994Z,3.10
2017-12-29T01:00:09.039Z,3.10
2017-12-29T01:02:38.001Z,3.20
2017-12-29T01:05:07.782Z,3.10
2017-12-29T01:07:36.760Z,3.00
2017-12-29T01:10:06.562Z,2.90
2017-12-29T01:12:35.698Z,3.00
2017-12-29T01:15:04.692Z,3.00
2017-12-29T01:17:34.428Z,3.10
2017-12-29T01:20:03.411Z,3.10
2017-12-29T01:22:32.816Z,3.00
2017-12-29T01:25:01.734Z,2.90
2017-12-29T01:27:30.724Z,3.00
2017-12-29T01:29:59.688Z,3.00
2017-12-29T01:32:29.121Z,3.00
2017-12-29T01:34:58.167Z,3.20
2017-12-29T01:37:27.618Z,3.10
2017-12-29T01:39:57.010Z,3.10
2017-12-29T01:42:25.984Z,3.10
2017-12-29T01:44:54.943Z,3.20
2017-12-29T01:47:24.700Z,3.20
2017-12-29T01:49:54.465Z,3.20
2017-12-29T01:52:23.861Z,3.30
2017-12-29T01:54:52.869Z,3.30
2017-12-29T01:57:21.886Z,3.30
2017-12-29T01:59:51.658Z,3.20
2017-12-29T02:02:20.627Z,3.20
2017-12-29T02:04:49.592Z,3.20
2017-12-29T02:07:18.580Z,3.30
2017-12-29T02:09:47.602Z,3.20
2017-12-29T02:12:17.285Z,3.40
2017-12-29T02:14:46.980Z,3.40
2017-12-29T02:17:16.536Z,3.50
2017-12-29T02:19:45.923Z,3.50
2017-12-29T02:22:14.919Z,3.50
2017-12-29T02:24:43.967Z,3.50
2017-12-29T02:27:13.698Z,3.40
2017-12-29T02:29:42.693Z,3.40
2017-12-29T02:32:11.668Z,3.40
2017-12-29T02:34:40.674Z,3.50
2017-12-29T02:37:09.642Z,3.40
2017-12-29T02:39:39.414Z,3.20
2017-12-29T02:42:08.762Z,3.20
2017-12-29T02:44:37.724Z,3.30
2017-12-29T02:47:06.705Z,3.20
2017-12-29T02:49:36.083Z,3.10
2017-12-29T02:52:05.124Z,3.10
2017-12-29T02:54:34.942Z,3.10
2017-12-29T02:57:04.330Z,3.30
2017-12-29T02:59:33.406Z,3.30
2017-12-29T03:02:02.790Z,3.40
2017-12-29T03:04:32.929Z,3.40
2017-12-29T03:07:01.943Z,3.30
2017-12-29T03:09:30.930Z,3.30
2017-12-29T03:12:00.316Z,3.30
2017-12-29T03:14:29.319Z,3.40
2017-12-29T03:16:58.733Z,3.50
2017-12-29T03:19:28.489Z,3.50
2017-12-29T03:21:57.504Z,3.50
2017-12-29T03:24:26.488Z,3.40
2017-12-29T03:26:55.850Z,3.40
2017-12-29T03:29:25.583Z,3.30
2017-12-29T03:31:54.736Z,3.20
2017-12-29T03:34:24.444Z,3.20
2017-12-29T03:36:54.353Z,3.10
2017-12-29T03:39:23.711Z,3.10
2017-12-29T03:41:52.758Z,3.00
2017-12-29T03:44:22.515Z,3.00
2017-12-29T03:46:51.528Z,3.00
2017-12-29T03:49:20.505Z,2.90
2017-12-29T03:51:49.508Z,2.80
2017-12-29T03:54:18.489Z,2.80
2017-12-29T03:56:47.454Z,2.80
2017-12-29T03:59:16.445Z,2.80
2017-12-29T04:01:45.415Z,2.80
2017-12-29T04:04:14.961Z,2.90
2017-12-29T04:06:45.083Z,2.80
2017-12-29T04:09:14.888Z,2.80
2017-12-29T04:11:45.157Z,2.80
2017-12-29T04:14:15.651Z,2.80
2017-12-29T04:16:44.664Z,2.70
2017-12-29T04:19:13.795Z,2.60
2017-12-29T04:21:43.541Z,2.70
2017-12-29T04:24:12.523Z,2.70
2017-12-29T04:26:41.556Z,2.70
2017-12-29T04:29:10.553Z,2.70
2017-12-29T04:31:39.561Z,2.70
2017-12-29T04:34:09.435Z,2.70
2017-12-29T04:36:38.430Z,2.80
2017-12-29T04:39:07.514Z,2.90
2017-12-29T04:41:36.498Z,3.00
2017-12-29T04:44:05.904Z,2.90
2017-12-29T04:46:35.308Z,2.80
2017-12-29T04:49:05.047Z,2.80
2017-12-29T04:51:34.834Z,2.80
2017-12-29T04:54:03.793Z,2.70
2017-12-29T04:56:33.534Z,2.80
2017-12-29T04:59:02.577Z,2.80
2017-12-29T05:01:32.319Z,2.70
2017-12-29T05:04:01.452Z,2.80
2017-12-29T05:06:30.802Z,2.70
2017-12-29T05:08:59.796Z,2.80
2017-12-29T05:11:29.585Z,2.90
2017-12-29T05:13:58.540Z,2.80
2017-12-29T05:16:27.544Z,2.70
2017-12-29T05:18:56.526Z,2.70
2017-12-29T05:21:25.494Z,2.70
2017-12-29T05:23:54.858Z,2.60
2017-12-29T05:26:25.507Z,2.60
2017-12-29T05:28:54.490Z,2.50
2017-12-29T05:31:24.252Z,2.40
2017-12-29T05:33:53.614Z,2.50
2017-12-29T05:36:22.616Z,2.50
2017-12-29T05:38:51.586Z,2.40
2017-12-29T05:41:21.342Z,2.40
2017-12-29T05:43:50.389Z,2.40
2017-12-29T05:46:20.149Z,2.40
2017-12-29T05:48:49.551Z,2.50
2017-12-29T05:51:18.515Z,2.50
2017-12-29T05:53:47.512Z,2.50
2017-12-29T05:56:16.872Z,2.50
2017-12-29T05:58:46.748Z,2.50
2017-12-29T06:01:15.730Z,2.40
2017-12-29T06:03:44.723Z,2.40
2017-12-29T06:06:14.444Z,2.50
2017-12-29T06:08:43.799Z,2.50
2017-12-29T06:11:12.832Z,2.50
2017-12-29T06:13:41.871Z,2.50
2017-12-29T06:16:11.610Z,2.60
2017-12-29T06:18:41.071Z,2.70
2017-12-29T06:21:10.038Z,2.70
2017-12-29T06:23:39.469Z,2.80
2017-12-29T06:26:09.941Z,2.90
2017-12-29T06:28:40.088Z,2.80
2017-12-29T06:31:09.074Z,2.80
2017-12-29T06:33:38.074Z,2.90
2017-12-29T06:36:07.106Z,2.90
2017-12-29T06:38:36.466Z,2.90
2017-12-29T06:41:05.461Z,2.90
2017-12-29T06:43:34.454Z,2.80
2017-12-29T06:46:03.440Z,2.80
2017-12-29T06:48:32.413Z,2.80
2017-12-29T06:51:02.209Z,2.80
2017-12-29T06:53:31.989Z,2.70
2017-12-29T06:56:00.981Z,2.70
2017-12-29T06:58:29.979Z,2.60
2017-12-29T07:00:59.026Z,2.50
2017-12-29T07:03:29.163Z,2.50
2017-12-29T07:05:58.146Z,2.50
2017-12-29T07:08:27.138Z,2.30
2017-12-29T07:10:56.110Z,2.30
2017-12-29T07:13:26.239Z,2.30
2017-12-29T07:15:55.630Z,2.30
2017-12-29T07:18:24.999Z,2.30
2017-12-29T07:20:54.758Z,2.20
2017-12-29T07:23:24.498Z,2.20
2017-12-29T07:25:53.488Z,2.10
2017-12-29T07:28:22.468Z,2.10
2017-12-29T07:30:51.576Z,2.10
2017-12-29T07:33:20.509Z,2.10
2017-12-29T07:35:49.479Z,2.10
2017-12-29T07:38:19.327Z,2.10
2017-12-29T07:40:48.284Z,2.00
2017-12-29T07:43:18.034Z,1.90
2017-12-29T07:45:47.029Z,1.80
2017-12-29T07:48:16.856Z,1.80
2017-12-29T07:50:45.884Z,1.90
2017-12-29T07:53:14.980Z,1.90
2017-12-29T07:55:44.373Z,2.00
2017-12-29T07:58:13.353Z,1.90
2017-12-29T08:00:42.755Z,1.80
2017-12-29T08:03:11.754Z,1.90
2017-12-29T08:05:40.820Z,1.90
2017-12-29T08:08:09.830Z,1.90
2017-12-29T08:10:40.343Z,2.00
2017-12-29T08:13:09.722Z,1.80
2017-12-29T08:15:38.717Z,1.80
2017-12-29T08:18:08.481Z,1.70
2017-12-29T08:20:38.213Z,1.50
2017-12-29T08:23:07.220Z,1.50
2017-12-29T08:25:36.701Z,1.50
2017-12-29T08:28:06.493Z,1.60
2017-12-29T08:30:35.555Z,1.50
2017-12-29T08:33:04.695Z,1.50
2017-12-29T08:35:34.541Z,1.50
2017-12-29T08:38:03.636Z,1.60
2017-12-29T08:40:32.772Z,1.80
2017-12-29T08:43:02.874Z,1.70
2017-12-29T08:45:31.925Z,1.50
2017-12-29T08:48:00.932Z,1.60
2017-12-29T08:50:30.440Z,1.70
2017-12-29T08:53:00.857Z,1.60
2017-12-29T08:55:29.908Z,1.60
2017-12-29T08:57:58.877Z,1.70
2017-12-29T09:00:28.289Z,1.70
2017-12-29T09:02:57.251Z,1.80
2017-12-29T09:05:26.253Z,1.70
2017-12-29T09:07:55.618Z,1.80
2017-12-29T09:10:25.421Z,1.80
2017-12-29T09:12:54.820Z,1.90
2017-12-29T09:15:23.779Z,2.00
2017-12-29T09:17:52.832Z,2.10
2017-12-29T09:20:22.581Z,2.10
2017-12-29T09:22:51.676Z,2.10
2017-12-29T09:25:21.079Z,2.10
2017-12-29T09:27:50.470Z,2.10
2017-12-29T09:30:19.462Z,2.10
2017-12-29T09:35:23.702Z,2.20
2017-12-29T09:37:53.537Z,2.40
2017-12-29T09:40:22.504Z,2.40
2017-12-29T09:42:51.495Z,2.40
2017-12-29T09:45:20.556Z,2.40
2017-12-29T09:47:49.935Z,2.40
2017-12-29T09:50:19.361Z,2.40
2017-12-29T09:52:48.334Z,2.40
2017-12-29T09:55:18.105Z,2.40
2017-12-29T09:57:47.088Z,2.60
2017-12-29T10:00:16.493Z,2.70
2017-12-29T10:02:45.461Z,2.60
2017-12-29T10:05:15.229Z,2.60
2017-12-29T10:07:44.605Z,2.60
2017-12-29T10:10:13.607Z,2.50
2017-12-29T10:12:43.359Z,2.60
2017-12-29T10:15:12.381Z,2.60
2017-12-29T10:17:41.406Z,2.70
2017-12-29T10:20:10.431Z,2.70
2017-12-29T10:22:40.179Z,2.80
2017-12-29T10:25:09.172Z,2.80
2017-12-29T10:27:38.525Z,2.90
2017-12-29T10:30:08.340Z,2.90
2017-12-29T10:32:37.355Z,3.00
2017-12-29T10:35:06.794Z,3.10
2017-12-29T10:37:36.531Z,3.00
2017-12-29T10:40:05.515Z,3.00
2017-12-29T10:42:34.919Z,3.10
2017-12-29T10:45:04.652Z,3.10
2017-12-29T10:47:34.385Z,3.10
2017-12-29T10:50:03.406Z,3.10
2017-12-29T10:52:32.733Z,3.10
2017-12-29T10:55:02.008Z,3.20
2017-12-29T10:57:30.995Z,3.20
2017-12-29T11:00:00.129Z,3.30
2017-12-29T11:02:29.103Z,3.30
2017-12-29T11:04:58.322Z,3.30
2017-12-29T11:07:27.264Z,3.30
2017-12-29T11:09:57.119Z,3.30
2017-12-29T11:12:26.093Z,3.40
2017-12-29T11:14:55.151Z,3.50
2017-12-29T11:17:24.619Z,3.40
2017-12-29T11:19:54.386Z,3.50
2017-12-29T11:22:23.902Z,3.40
2017-12-29T11:24:52.953Z,3.30
2017-12-29T11:27:21.958Z,3.60
2017-12-29T11:29:51.061Z,3.70
2017-12-29T11:32:20.021Z,3.80
2017-12-29T11:34:49.917Z,4.00
2017-12-29T11:37:19.646Z,4.10
2017-12-29T11:39:48.651Z,4.20
2017-12-29T11:42:17.681Z,4.30
2017-12-29T11:44:47.410Z,4.40
2017-12-29T11:47:16.372Z,4.40
2017-12-29T11:49:45.796Z,4.60
2017-12-29T11:52:14.763Z,4.50
2017-12-29T11:54:44.527Z,4.60
2017-12-29T11:57:13.936Z,4.70
2017-12-29T11:59:43.307Z,4.80
2017-12-29T12:02:12.696Z,5.00
2017-12-29T12:04:42.149Z,5.10
2017-12-29T12:07:11.914Z,5.00
2017-12-29T12:09:41.303Z,4.90
2017-12-29T12:12:11.137Z,5.10
2017-12-29T12:14:40.124Z,5.20
2017-12-29T12:17:09.105Z,5.50
2017-12-29T12:19:38.097Z,5.10
2017-12-29T12:22:07.958Z,4.60
2017-12-29T12:24:37.698Z,4.80
2017-12-29T12:27:06.693Z,4.90
2017-12-29T12:29:36.507Z,5.10
2017-12-29T12:32:05.489Z,5.20
2017-12-29T12:34:34.488Z,5.60
2017-12-29T12:37:03.495Z,5.70
2017-12-29T12:39:32.513Z,5.60
2017-12-29T12:42:01.550Z,5.20
2017-12-29T12:44:30.560Z,4.90
2017-12-29T12:46:59.586Z,4.90
2017-12-29T12:49:28.598Z,4.70
2017-12-29T12:51:57.947Z,4.70
2017-12-29T12:54:27.705Z,4.70
2017-12-29T12:56:56.713Z,4.80
2017-12-29T12:59:26.101Z,5.10
2017-12-29T13:01:55.857Z,5.40
2017-12-29T13:04:24.872Z,5.60
2017-12-29T13:06:54.607Z,5.60
2017-12-29T13:09:24.058Z,5.60
2017-12-29T13:11:53.773Z,5.70
2017-12-29T13:14:22.779Z,5.90
2017-12-29T13:16:52.174Z,5.90
2017-12-29T13:19:21.556Z,5.90
2017-12-29T13:21:50.616Z,5.70
2017-12-29T13:24:21.147Z,5.50
2017-12-29T13:26:50.905Z,5.20
2017-12-29T13:29:20.106Z,5.10
2017-12-29T13:31:49.796Z,4.90
2017-12-29T13:34:18.816Z,4.90
2017-12-29T13:36:47.804Z,4.80
2017-12-29T13:39:16.856Z,4.80
2017-12-29T13:41:46.620Z,4.70
2017-12-29T13:44:16.432Z,4.70
2017-12-29T13:46:45.396Z,4.70
2017-12-29T13:49:15.569Z,8.50
2017-12-29T13:51:44.568Z,4.60
2017-12-29T13:54:14.328Z,4.50
2017-12-29T13:56:43.333Z,4.40
2017-12-29T13:59:12.340Z,4.30
2017-12-29T14:01:41.821Z,4.30
2017-12-29T14:04:11.072Z,4.30
2017-12-29T14:06:40.036Z,4.30
2017-12-29T14:09:10.544Z,4.30
2017-12-29T14:11:39.542Z,4.30
2017-12-29T14:14:08.559Z,4.30
2017-12-29T14:16:38.332Z,4.30
2017-12-29T14:19:07.338Z,4.20
2017-12-29T14:21:36.705Z,4.10
2017-12-29T14:24:05.776Z,4.10
2017-12-29T14:26:35.523Z,4.10
2017-12-29T14:29:04.491Z,4.20
2017-12-29T14:31:33.475Z,4.20
2017-12-29T14:34:03.214Z,4.20
2017-12-29T14:36:33.372Z,4.20
2017-12-29T14:39:02.313Z,4.10
2017-12-29T14:41:31.279Z,4.10
2017-12-29T14:44:00.729Z,4.10
2017-12-29T14:46:30.121Z,4.20
2017-12-29T14:48:59.888Z,4.20
2017-12-29T14:51:28.845Z,4.10
2017-12-29T14:53:58.640Z,4.20
2017-12-29T14:56:27.592Z,4.10
2017-12-29T14:58:57.335Z,4.20
2017-12-29T15:01:26.724Z,4.10
2017-12-29T15:03:55.702Z,4.10
2017-12-29T15:06:25.475Z,4.10
2017-12-29T15:08:54.437Z,4.10
2017-12-29T15:11:23.440Z,4.00
2017-12-29T15:13:52.424Z,4.00
2017-12-29T15:16:21.399Z,4.00
2017-12-29T15:18:50.406Z,4.00
2017-12-29T15:21:19.377Z,4.00
2017-12-29T15:23:48.382Z,4.10
2017-12-29T15:26:17.342Z,4.10
2017-12-29T15:28:47.150Z,4.00
2017-12-29T15:31:16.228Z,3.90
2017-12-29T15:33:45.702Z,3.90
2017-12-29T15:36:14.688Z,3.90
2017-12-29T15:38:43.702Z,3.90
2017-12-29T15:41:12.704Z,3.90
2017-12-29T15:43:41.739Z,4.00
2017-12-29T15:46:11.547Z,4.00
2017-12-29T15:48:41.299Z,4.10
2017-12-29T15:51:14.573Z,4.10
2017-12-29T15:53:44.300Z,4.10
2017-12-29T15:56:14.093Z,4.10
2017-12-29T15:58:43.482Z,4.00
2017-12-29T16:01:16.756Z,4.10
2017-12-29T16:03:46.519Z,4.10
2017-12-29T16:06:15.554Z,4.20
2017-12-29T16:08:45.285Z,4.20
2017-12-29T16:11:14.280Z,4.20
2017-12-29T16:13:43.692Z,4.20
2017-12-29T16:16:12.683Z,4.10
2017-12-29T16:18:41.660Z,4.20
2017-12-29T16:21:11.146Z,4.20
2017-12-29T16:23:40.113Z,4.20
2017-12-29T16:26:09.079Z,4.20
2017-12-29T16:28:38.854Z,4.10
2017-12-29T16:31:08.697Z,4.00
2017-12-29T16:33:37.683Z,3.80
2017-12-29T16:36:07.809Z,4.10
2017-12-29T16:38:37.601Z,4.10
2017-12-29T16:41:07.081Z,4.10
2017-12-29T16:43:36.066Z,4.00
2017-12-29T16:46:05.864Z,4.00
2017-12-29T16:48:34.861Z,4.00
2017-12-29T16:51:04.584Z,4.10
2017-12-29T16:53:34.347Z,4.00
2017-12-29T16:56:03.304Z,3.80
2017-12-29T16:58:32.312Z,3.70
2017-12-29T17:01:01.778Z,3.70
2017-12-29T17:03:30.789Z,3.70
2017-12-29T17:06:00.557Z,3.70
2017-12-29T17:08:29.521Z,3.70
2017-12-29T17:10:58.531Z,3.70
2017-12-29T17:13:27.506Z,3.70
2017-12-29T17:15:57.284Z,3.80
2017-12-29T17:18:26.658Z,3.70
2017-12-29T17:20:55.663Z,3.60
2017-12-29T17:23:26.175Z,3.60
2017-12-29T17:25:55.169Z,3.50
2017-12-29T17:28:24.597Z,3.40
2017-12-29T17:30:53.894Z,3.30
2017-12-29T17:33:23.270Z,3.20
2017-12-29T17:35:53.043Z,3.20
2017-12-29T17:38:23.579Z,3.10
2017-12-29T17:40:52.975Z,3.20
2017-12-29T17:43:22.377Z,3.20
2017-12-29T17:45:51.337Z,3.10
2017-12-29T17:48:21.111Z,3.10
2017-12-29T17:50:54.320Z,3.20
2017-12-29T17:53:23.305Z,3.20
2017-12-29T17:55:52.411Z,3.20
2017-12-29T17:58:21.381Z,3.90
2017-12-29T18:00:50.354Z,3.30
2017-12-29T18:03:19.360Z,3.20
2017-12-29T18:05:48.766Z,3.10
2017-12-29T18:08:18.401Z,3.10
2017-12-29T18:10:47.724Z,3.20
2017-12-29T18:13:16.869Z,3.10
2017-12-29T18:15:46.183Z,3.10
2017-12-29T18:18:15.715Z,3.20
2017-12-29T18:20:44.705Z,3.10
2017-12-29T18:23:13.673Z,3.10
2017-12-29T18:25:42.672Z,3.00
2017-12-29T18:28:11.640Z,2.90
2017-12-29T18:30:40.607Z,3.00
2017-12-29T18:33:09.632Z,3.10
2017-12-29T18:35:39.362Z,3.20
2017-12-29T18:38:08.399Z,3.10
2017-12-29T18:40:37.378Z,3.00
2017-12-29T18:43:06.345Z,2.90
2017-12-29T18:45:35.764Z,2.90
2017-12-29T18:48:04.733Z,2.80
2017-12-29T18:50:33.747Z,2.70
2017-12-29T18:53:02.749Z,2.60
2017-12-29T18:55:31.760Z,2.60
2017-12-29T18:58:02.282Z,2.60
2017-12-29T19:00:31.706Z,2.70
2017-12-29T19:03:01.090Z,2.70
2017-12-29T19:05:30.110Z,2.60
2017-12-29T19:07:59.830Z,2.60
2017-12-29T19:10:29.599Z,2.50
2017-12-29T19:12:59.340Z,2.60
2017-12-29T19:15:28.376Z,2.50
2017-12-29T19:17:57.351Z,2.60
2017-12-29T19:20:26.779Z,2.40
2017-12-29T19:22:56.780Z,2.50
2017-12-29T19:25:25.863Z,2.50
2017-12-29T19:27:55.644Z,2.60
2017-12-29T19:30:24.695Z,2.60
2017-12-29T19:32:53.713Z,2.50
2017-12-29T19:35:22.745Z,2.50
2017-12-29T19:37:52.580Z,2.50
2017-12-29T19:40:21.605Z,2.30
2017-12-29T19:42:51.501Z,2.30
2017-12-29T19:45:21.041Z,2.40
2017-12-29T19:47:50.824Z,2.40
2017-12-29T19:50:20.346Z,2.40
2017-12-29T19:52:49.777Z,2.50
2017-12-29T19:55:19.518Z,2.60
2017-12-29T19:57:49.371Z,2.50
2017-12-29T20:00:19.210Z,2.60
2017-12-29T20:02:48.229Z,2.60
2017-12-29T20:05:18.034Z,2.60
2017-12-29T20:07:47.793Z,2.50
2017-12-29T20:10:17.207Z,2.60
2017-12-29T20:12:47.810Z,2.70
2017-12-29T20:15:17.615Z,2.70
2017-12-29T20:17:46.668Z,2.70
2017-12-29T20:20:17.501Z,2.70
2017-12-29T20:22:47.303Z,2.60
2017-12-29T20:25:17.082Z,2.70
2017-12-29T20:27:47.469Z,2.80
2017-12-29T20:30:17.230Z,2.90
2017-12-29T20:32:46.479Z,2.80
2017-12-29T20:35:16.356Z,2.80
2017-12-29T20:37:46.020Z,2.90
2017-12-29T20:40:15.454Z,2.80
2017-12-29T20:42:44.845Z,2.80
2017-12-29T20:45:13.940Z,2.90
2017-12-29T20:47:43.302Z,2.90
2017-12-29T20:50:12.728Z,2.90
2017-12-29T20:52:42.264Z,2.80
2017-12-29T20:55:11.264Z,2.90
2017-12-29T20:57:41.055Z,2.80
2017-12-29T21:00:10.098Z,2.90
2017-12-29T21:02:39.498Z,2.90
2017-12-29T21:05:09.329Z,3.00
2017-12-29T21:07:38.750Z,3.10
2017-12-29T21:10:08.574Z,3.00
2017-12-29T21:12:37.632Z,3.00
2017-12-29T21:15:07.638Z,3.00
2017-12-29T21:17:37.435Z,3.00
2017-12-29T21:20:07.251Z,3.10
2017-12-29T21:22:37.104Z,3.00
2017-12-29T21:25:07.297Z,3.00
2017-12-29T21:27:36.818Z,3.10
2017-12-29T21:30:06.914Z,3.10
2017-12-29T21:32:37.020Z,3.10
2017-12-29T21:35:06.933Z,3.10
2017-12-29T21:37:37.526Z,3.00
2017-12-29T21:40:07.456Z,3.10
2017-12-29T21:42:36.483Z,3.10
2017-12-29T21:45:06.593Z,3.30
2017-12-29T21:47:35.997Z,3.20
2017-12-29T21:50:05.349Z,3.20
2017-12-29T21:52:37.502Z,3.30
2017-12-29T21:55:18.051Z,3.20
2017-12-29T21:57:47.067Z,3.30
2017-12-29T22:00:16.865Z,3.40
2017-12-29T22:02:45.968Z,3.30
2017-12-29T22:05:15.745Z,3.30
2017-12-29T22:07:46.277Z,3.30
2017-12-29T22:10:15.295Z,3.40
2017-12-29T22:12:44.318Z,3.50
2017-12-29T22:15:13.633Z,3.40
2017-12-29T22:17:42.653Z,3.40
2017-12-29T22:20:11.695Z,3.40
2017-12-29T22:22:41.498Z,3.50
2017-12-29T22:25:11.423Z,3.50
2017-12-29T22:27:40.552Z,3.60
2017-12-29T22:30:09.976Z,3.50
2017-12-29T22:32:39.398Z,3.60
2017-12-29T22:35:09.450Z,3.60
2017-12-29T22:37:38.833Z,3.60
2017-12-29T22:40:08.273Z,3.70
2017-12-29T22:42:38.077Z,3.70
2017-12-29T22:45:07.478Z,3.70
2017-12-29T22:47:36.471Z,3.80
2017-12-29T22:50:05.622Z,3.80
2017-12-29T22:52:35.436Z,3.70
2017-12-29T22:55:04.432Z,3.80
2017-12-29T22:57:34.244Z,3.70
2017-12-29T23:00:04.256Z,3.80
2017-12-29T23:02:33.651Z,3.90
2017-12-29T23:05:03.416Z,3.90
2017-12-29T23:07:32.424Z,3.90
2017-12-29T23:10:01.416Z,4.00
2017-12-29T23:12:30.388Z,4.00
2017-12-29T23:14:59.543Z,4.00
2017-12-29T23:17:28.549Z,4.00
2017-12-29T23:19:58.330Z,4.10
2017-12-29T23:22:27.545Z,4.10
2017-12-29T23:24:56.535Z,4.10
2017-12-29T23:27:26.286Z,4.10
2017-12-29T23:29:56.480Z,4.20
2017-12-29T23:32:25.560Z,4.20
2017-12-29T23:34:55.296Z,4.20
2017-12-29T23:37:24.686Z,4.20
2017-12-29T23:39:54.427Z,4.20
2017-12-29T23:42:23.828Z,4.30
2017-12-29T23:44:52.856Z,4.30
2017-12-29T23:47:22.267Z,4.20
2017-12-29T23:49:51.288Z,4.20
2017-12-29T23:52:21.039Z,4.20
2017-12-29T23:54:50.802Z,4.20
2017-12-29T23:57:19.783Z,4.10
2017-12-29T23:59:49.666Z,4.20
